sensor_id;sensor_type;location;lat;lon;timestamp;temperature;humidity
35647;DHT22;28680;45.642;13.756;2023-08-30T00:01:12;21.40;99.90
35647;DHT22;28680;45.642;13.756;2023-08-30T00:03:38;21.30;99.90
35647;DHT22;28680;45.642;13.756;2023-08-30T00:06:05;21.40;99.90
35647;DHT22;28680;45.642;13.756;2023-08-30T00:08:32;21.00;99.90
35647;DHT22;28680;45.642;13.756;2023-08-30T00:10:57;20.90;99.90
35647;DHT22;28680;45.642;13.756;2023-08-30T00:13:29;21.10;99.90
35647;DHT22;28680;45.642;13.756;2023-08-30T00:15:56;21.20;99.90
35647;DHT22;28680;45.642;13.756;2023-08-30T00:18:22;21.30;99.90
35647;DHT22;28680;45.642;13.756;2023-08-30T00:20:47;21.30;99.90
35647;DHT22;28680;45.642;13.756;2023-08-30T00:23:13;21.70;99.90
35647;DHT22;28680;45.642;13.756;2023-08-30T00:25:39;22.00;99.90
35647;DHT22;28680;45.642;13.756;2023-08-30T00:28:05;21.90;99.90
35647;DHT22;28680;45.642;13.756;2023-08-30T00:30:33;21.90;99.90
35647;DHT22;28680;45.642;13.756;2023-08-30T00:33:03;22.00;99.90
35647;DHT22;28680;45.642;13.756;2023-08-30T00:35:30;21.40;99.90
35647;DHT22;28680;45.642;13.756;2023-08-30T00:37:56;21.00;99.90
35647;DHT22;28680;45.642;13.756;2023-08-30T00:40:25;20.70;99.90
35647;DHT22;28680;45.642;13.756;2023-08-30T00:42:52;20.70;99.90
35647;DHT22;28680;45.642;13.756;2023-08-30T00:45:18;21.10;99.90
35647;DHT22;28680;45.642;13.756;2023-08-30T00:47:44;21.20;99.90
35647;DHT22;28680;45.642;13.756;2023-08-30T00:50:10;21.40;99.90
35647;DHT22;28680;45.642;13.756;2023-08-30T00:52:36;21.30;99.90
35647;DHT22;28680;45.642;13.756;2023-08-30T00:55:01;21.10;99.90
35647;DHT22;28680;45.642;13.756;2023-08-30T00:57:27;20.70;99.90
35647;DHT22;28680;45.642;13.756;2023-08-30T00:59:54;20.70;99.90
35647;DHT22;28680;45.642;13.756;2023-08-30T01:02:20;20.50;99.90
35647;DHT22;28680;45.642;13.756;2023-08-30T01:04:47;20.40;99.90
35647;DHT22;28680;45.642;13.756;2023-08-30T01:07:13;20.30;99.90
35647;DHT22;28680;45.642;13.756;2023-08-30T01:09:39;21.10;99.90
35647;DHT22;28680;45.642;13.756;2023-08-30T01:12:17;20.60;99.90
35647;DHT22;28680;45.642;13.756;2023-08-30T01:15:00;20.60;99.90
35647;DHT22;28680;45.642;13.756;2023-08-30T01:17:29;20.60;99.90
35647;DHT22;28680;45.642;13.756;2023-08-30T01:20:01;20.70;99.90
35647;DHT22;28680;45.642;13.756;2023-08-30T01:22:57;20.50;99.90
35647;DHT22;28680;45.642;13.756;2023-08-30T01:28:09;20.70;99.90
35647;DHT22;28680;45.642;13.756;2023-08-30T01:30:37;21.00;99.90
35647;DHT22;28680;45.642;13.756;2023-08-30T01:33:05;20.80;99.90
35647;DHT22;28680;45.642;13.756;2023-08-30T01:35:32;20.50;99.90
35647;DHT22;28680;45.642;13.756;2023-08-30T01:38:02;20.10;99.90
35647;DHT22;28680;45.642;13.756;2023-08-30T01:40:32;20.30;99.90
35647;DHT22;28680;45.642;13.756;2023-08-30T01:42:59;20.40;99.90
35647;DHT22;28680;45.642;13.756;2023-08-30T01:45:25;20.80;99.90
35647;DHT22;28680;45.642;13.756;2023-08-30T01:47:52;21.40;99.90
35647;DHT22;28680;45.642;13.756;2023-08-30T01:50:19;21.00;99.90
35647;DHT22;28680;45.642;13.756;2023-08-30T01:52:46;20.50;99.90
35647;DHT22;28680;45.642;13.756;2023-08-30T01:55:13;20.90;99.90
35647;DHT22;28680;45.642;13.756;2023-08-30T01:57:39;20.50;99.90
35647;DHT22;28680;45.642;13.756;2023-08-30T02:00:06;20.20;99.90
35647;DHT22;28680;45.642;13.756;2023-08-30T02:02:41;19.90;99.90
35647;DHT22;28680;45.642;13.756;2023-08-30T02:05:07;19.90;99.90
35647;DHT22;28680;45.642;13.756;2023-08-30T02:07:43;20.20;99.90
35647;DHT22;28680;45.642;13.756;2023-08-30T02:10:12;20.10;99.90
35647;DHT22;28680;45.642;13.756;2023-08-30T02:12:48;19.60;99.90
35647;DHT22;28680;45.642;13.756;2023-08-30T02:15:17;19.90;99.90
35647;DHT22;28680;45.642;13.756;2023-08-30T02:17:44;20.90;99.90
35647;DHT22;28680;45.642;13.756;2023-08-30T02:20:11;21.40;99.90
35647;DHT22;28680;45.642;13.756;2023-08-30T02:22:37;20.90;99.90
35647;DHT22;28680;45.642;13.756;2023-08-30T02:25:03;21.60;99.90
35647;DHT22;28680;45.642;13.756;2023-08-30T02:27:34;21.40;99.90
35647;DHT22;28680;45.642;13.756;2023-08-30T02:30:01;21.00;99.90
35647;DHT22;28680;45.642;13.756;2023-08-30T02:32:28;20.30;99.90
35647;DHT22;28680;45.642;13.756;2023-08-30T02:34:55;20.10;99.90
35647;DHT22;28680;45.642;13.756;2023-08-30T02:37:21;20.70;99.90
35647;DHT22;28680;45.642;13.756;2023-08-30T02:39:49;20.70;99.90
35647;DHT22;28680;45.642;13.756;2023-08-30T02:42:15;20.90;99.90
35647;DHT22;28680;45.642;13.756;2023-08-30T02:44:41;20.80;99.90
35647;DHT22;28680;45.642;13.756;2023-08-30T02:47:07;20.90;99.90
35647;DHT22;28680;45.642;13.756;2023-08-30T02:49:33;20.60;99.90
35647;DHT22;28680;45.642;13.756;2023-08-30T02:51:59;20.30;99.90
35647;DHT22;28680;45.642;13.756;2023-08-30T02:54:25;20.40;99.90
35647;DHT22;28680;45.642;13.756;2023-08-30T02:56:53;20.60;99.90
35647;DHT22;28680;45.642;13.756;2023-08-30T02:59:19;20.20;99.90
35647;DHT22;28680;45.642;13.756;2023-08-30T03:01:44;20.20;99.90
35647;DHT22;28680;45.642;13.756;2023-08-30T03:04:13;20.70;99.90
35647;DHT22;28680;45.642;13.756;2023-08-30T03:06:38;20.20;99.90
35647;DHT22;28680;45.642;13.756;2023-08-30T03:09:04;20.40;99.90
35647;DHT22;28680;45.642;13.756;2023-08-30T03:11:34;20.40;99.90
35647;DHT22;28680;45.642;13.756;2023-08-30T03:14:00;20.70;99.90
35647;DHT22;28680;45.642;13.756;2023-08-30T03:16:26;20.80;99.90
35647;DHT22;28680;45.642;13.756;2023-08-30T03:18:54;20.60;99.90
35647;DHT22;28680;45.642;13.756;2023-08-30T03:21:19;21.00;99.90
35647;DHT22;28680;45.642;13.756;2023-08-30T03:23:45;21.00;99.90
35647;DHT22;28680;45.642;13.756;2023-08-30T03:26:12;20.90;99.90
35647;DHT22;28680;45.642;13.756;2023-08-30T03:28:39;20.90;99.90
35647;DHT22;28680;45.642;13.756;2023-08-30T03:31:15;20.90;99.90
35647;DHT22;28680;45.642;13.756;2023-08-30T03:33:41;20.70;99.90
35647;DHT22;28680;45.642;13.756;2023-08-30T03:36:12;20.70;99.90
35647;DHT22;28680;45.642;13.756;2023-08-30T03:38:38;20.70;99.90
35647;DHT22;28680;45.642;13.756;2023-08-30T03:41:05;21.40;99.90
35647;DHT22;28680;45.642;13.756;2023-08-30T03:43:31;20.80;99.90
35647;DHT22;28680;45.642;13.756;2023-08-30T03:46:01;21.30;99.90
35647;DHT22;28680;45.642;13.756;2023-08-30T03:48:29;20.70;99.90
35647;DHT22;28680;45.642;13.756;2023-08-30T03:50:55;20.00;99.90
35647;DHT22;28680;45.642;13.756;2023-08-30T03:53:22;20.00;99.90
35647;DHT22;28680;45.642;13.756;2023-08-30T03:55:48;20.00;99.90
35647;DHT22;28680;45.642;13.756;2023-08-30T03:58:14;19.80;99.90
35647;DHT22;28680;45.642;13.756;2023-08-30T04:00:40;19.70;99.90
35647;DHT22;28680;45.642;13.756;2023-08-30T04:03:08;20.40;99.90
35647;DHT22;28680;45.642;13.756;2023-08-30T04:05:38;19.70;99.90
35647;DHT22;28680;45.642;13.756;2023-08-30T04:08:05;19.80;99.90
35647;DHT22;28680;45.642;13.756;2023-08-30T04:10:39;19.80;99.90
35647;DHT22;28680;45.642;13.756;2023-08-30T04:13:05;20.10;99.90
35647;DHT22;28680;45.642;13.756;2023-08-30T04:15:35;20.20;99.90
35647;DHT22;28680;45.642;13.756;2023-08-30T04:18:02;20.90;99.90
35647;DHT22;28680;45.642;13.756;2023-08-30T04:20:29;20.80;99.90
35647;DHT22;28680;45.642;13.756;2023-08-30T04:22:55;20.40;99.90
35647;DHT22;28680;45.642;13.756;2023-08-30T04:25:22;19.70;99.90
35647;DHT22;28680;45.642;13.756;2023-08-30T04:27:48;19.10;99.90
35647;DHT22;28680;45.642;13.756;2023-08-30T04:30:37;20.20;99.90
35647;DHT22;28680;45.642;13.756;2023-08-30T04:33:04;20.30;99.90
35647;DHT22;28680;45.642;13.756;2023-08-30T04:35:31;20.90;99.90
35647;DHT22;28680;45.642;13.756;2023-08-30T04:38:01;20.10;99.90
35647;DHT22;28680;45.642;13.756;2023-08-30T04:40:27;20.00;99.90
35647;DHT22;28680;45.642;13.756;2023-08-30T04:42:54;19.90;99.90
35647;DHT22;28680;45.642;13.756;2023-08-30T04:45:19;20.30;99.90
35647;DHT22;28680;45.642;13.756;2023-08-30T04:47:45;20.30;99.90
35647;DHT22;28680;45.642;13.756;2023-08-30T04:50:12;21.10;99.90
35647;DHT22;28680;45.642;13.756;2023-08-30T04:52:38;20.00;99.90
35647;DHT22;28680;45.642;13.756;2023-08-30T04:55:05;19.90;99.90
35647;DHT22;28680;45.642;13.756;2023-08-30T04:57:32;20.90;99.90
35647;DHT22;28680;45.642;13.756;2023-08-30T04:59:58;20.20;99.90
35647;DHT22;28680;45.642;13.756;2023-08-30T05:02:23;19.70;99.90
35647;DHT22;28680;45.642;13.756;2023-08-30T05:05:05;19.90;99.90
35647;DHT22;28680;45.642;13.756;2023-08-30T05:07:32;19.90;99.90
35647;DHT22;28680;45.642;13.756;2023-08-30T05:09:58;20.00;99.90
35647;DHT22;28680;45.642;13.756;2023-08-30T05:12:24;20.40;99.90
35647;DHT22;28680;45.642;13.756;2023-08-30T05:14:51;19.90;99.90
35647;DHT22;28680;45.642;13.756;2023-08-30T05:17:16;19.90;99.90
35647;DHT22;28680;45.642;13.756;2023-08-30T05:19:43;19.80;99.90
35647;DHT22;28680;45.642;13.756;2023-08-30T05:22:09;19.90;99.90
35647;DHT22;28680;45.642;13.756;2023-08-30T05:24:35;20.00;99.90
35647;DHT22;28680;45.642;13.756;2023-08-30T05:27:01;20.60;99.90
35647;DHT22;28680;45.642;13.756;2023-08-30T05:29:37;20.40;99.90
35647;DHT22;28680;45.642;13.756;2023-08-30T05:32:03;20.80;99.90
35647;DHT22;28680;45.642;13.756;2023-08-30T05:34:45;20.30;99.90
35647;DHT22;28680;45.642;13.756;2023-08-30T05:37:27;20.40;99.90
35647;DHT22;28680;45.642;13.756;2023-08-30T05:40:01;20.00;99.90
35647;DHT22;28680;45.642;13.756;2023-08-30T05:42:27;19.80;99.90
35647;DHT22;28680;45.642;13.756;2023-08-30T05:44:55;19.90;99.90
35647;DHT22;28680;45.642;13.756;2023-08-30T05:47:24;20.30;99.90
35647;DHT22;28680;45.642;13.756;2023-08-30T05:49:50;20.10;99.90
35647;DHT22;28680;45.642;13.756;2023-08-30T05:52:16;20.50;99.90
35647;DHT22;28680;45.642;13.756;2023-08-30T05:54:42;20.40;99.90
35647;DHT22;28680;45.642;13.756;2023-08-30T05:57:13;20.10;99.90
35647;DHT22;28680;45.642;13.756;2023-08-30T05:59:39;19.70;99.90
35647;DHT22;28680;45.642;13.756;2023-08-30T06:02:05;20.50;99.90
35647;DHT22;28680;45.642;13.756;2023-08-30T06:04:31;20.50;99.90
35647;DHT22;28680;45.642;13.756;2023-08-30T06:06:57;20.50;99.90
35647;DHT22;28680;45.642;13.756;2023-08-30T06:09:22;19.90;99.90
35647;DHT22;28680;45.642;13.756;2023-08-30T06:11:48;19.90;99.90
35647;DHT22;28680;45.642;13.756;2023-08-30T06:14:14;19.80;99.90
35647;DHT22;28680;45.642;13.756;2023-08-30T06:16:42;19.60;99.90
35647;DHT22;28680;45.642;13.756;2023-08-30T06:19:10;20.00;99.90
35647;DHT22;28680;45.642;13.756;2023-08-30T06:21:36;20.10;99.90
35647;DHT22;28680;45.642;13.756;2023-08-30T06:24:02;20.40;99.90
35647;DHT22;28680;45.642;13.756;2023-08-30T06:26:29;19.90;99.90
35647;DHT22;28680;45.642;13.756;2023-08-30T06:28:55;19.50;99.90
35647;DHT22;28680;45.642;13.756;2023-08-30T06:31:21;19.10;99.90
35647;DHT22;28680;45.642;13.756;2023-08-30T06:33:46;19.80;99.90
35647;DHT22;28680;45.642;13.756;2023-08-30T06:36:14;19.70;99.90
35647;DHT22;28680;45.642;13.756;2023-08-30T06:38:42;19.60;99.90
35647;DHT22;28680;45.642;13.756;2023-08-30T06:41:08;20.70;99.90
35647;DHT22;28680;45.642;13.756;2023-08-30T06:43:34;20.70;99.90
35647;DHT22;28680;45.642;13.756;2023-08-30T06:46:00;19.70;99.90
35647;DHT22;28680;45.642;13.756;2023-08-30T06:48:26;19.90;99.90
35647;DHT22;28680;45.642;13.756;2023-08-30T06:50:52;20.60;99.90
35647;DHT22;28680;45.642;13.756;2023-08-30T06:53:17;20.40;99.90
35647;DHT22;28680;45.642;13.756;2023-08-30T06:55:43;19.80;99.90
35647;DHT22;28680;45.642;13.756;2023-08-30T06:58:09;20.30;99.90
35647;DHT22;28680;45.642;13.756;2023-08-30T07:00:35;19.50;99.90
35647;DHT22;28680;45.642;13.756;2023-08-30T07:03:00;19.20;99.90
35647;DHT22;28680;45.642;13.756;2023-08-30T07:05:26;19.00;99.90
35647;DHT22;28680;45.642;13.756;2023-08-30T07:07:52;19.70;99.90
35647;DHT22;28680;45.642;13.756;2023-08-30T07:10:18;19.40;99.90
35647;DHT22;28680;45.642;13.756;2023-08-30T07:12:44;19.40;99.90
35647;DHT22;28680;45.642;13.756;2023-08-30T07:15:10;19.90;99.90
35647;DHT22;28680;45.642;13.756;2023-08-30T07:17:36;19.90;99.90
35647;DHT22;28680;45.642;13.756;2023-08-30T07:20:02;20.20;99.90
35647;DHT22;28680;45.642;13.756;2023-08-30T07:22:30;19.70;99.90
35647;DHT22;28680;45.642;13.756;2023-08-30T07:24:56;20.20;99.90
35647;DHT22;28680;45.642;13.756;2023-08-30T07:27:21;19.80;99.90
35647;DHT22;28680;45.642;13.756;2023-08-30T07:29:47;20.00;99.90
35647;DHT22;28680;45.642;13.756;2023-08-30T07:32:13;19.50;99.90
35647;DHT22;28680;45.642;13.756;2023-08-30T07:34:39;18.60;99.90
35647;DHT22;28680;45.642;13.756;2023-08-30T07:37:17;19.70;99.90
35647;DHT22;28680;45.642;13.756;2023-08-30T07:39:42;19.60;99.90
35647;DHT22;28680;45.642;13.756;2023-08-30T07:42:08;18.90;99.90
35647;DHT22;28680;45.642;13.756;2023-08-30T07:44:34;19.20;99.90
35647;DHT22;28680;45.642;13.756;2023-08-30T07:47:00;19.40;99.90
35647;DHT22;28680;45.642;13.756;2023-08-30T07:49:25;19.30;99.90
35647;DHT22;28680;45.642;13.756;2023-08-30T07:51:51;19.50;99.90
35647;DHT22;28680;45.642;13.756;2023-08-30T07:54:17;19.80;99.90
35647;DHT22;28680;45.642;13.756;2023-08-30T07:56:43;19.50;99.90
35647;DHT22;28680;45.642;13.756;2023-08-30T07:59:08;19.40;99.90
35647;DHT22;28680;45.642;13.756;2023-08-30T08:01:35;19.40;99.90
35647;DHT22;28680;45.642;13.756;2023-08-30T08:04:00;18.90;99.90
35647;DHT22;28680;45.642;13.756;2023-08-30T08:06:26;18.90;99.90
35647;DHT22;28680;45.642;13.756;2023-08-30T08:08:52;19.20;99.90
35647;DHT22;28680;45.642;13.756;2023-08-30T08:11:18;19.50;99.90
35647;DHT22;28680;45.642;13.756;2023-08-30T08:13:43;19.10;99.90
35647;DHT22;28680;45.642;13.756;2023-08-30T08:16:09;20.20;99.90
35647;DHT22;28680;45.642;13.756;2023-08-30T08:18:35;20.10;99.90
35647;DHT22;28680;45.642;13.756;2023-08-30T08:21:01;20.50;99.90
35647;DHT22;28680;45.642;13.756;2023-08-30T08:23:26;20.00;99.90
35647;DHT22;28680;45.642;13.756;2023-08-30T08:25:59;20.40;99.90
35647;DHT22;28680;45.642;13.756;2023-08-30T08:28:26;20.30;99.90
35647;DHT22;28680;45.642;13.756;2023-08-30T08:30:51;20.00;99.90
35647;DHT22;28680;45.642;13.756;2023-08-30T08:33:18;20.20;99.90
35647;DHT22;28680;45.642;13.756;2023-08-30T08:35:44;19.80;99.90
35647;DHT22;28680;45.642;13.756;2023-08-30T08:38:10;20.30;99.90
35647;DHT22;28680;45.642;13.756;2023-08-30T08:40:40;20.20;99.90
35647;DHT22;28680;45.642;13.756;2023-08-30T08:43:06;19.70;99.90
35647;DHT22;28680;45.642;13.756;2023-08-30T08:45:35;20.30;99.90
35647;DHT22;28680;45.642;13.756;2023-08-30T08:48:04;20.70;99.90
35647;DHT22;28680;45.642;13.756;2023-08-30T08:50:32;20.30;99.90
35647;DHT22;28680;45.642;13.756;2023-08-30T08:52:59;20.60;99.90
35647;DHT22;28680;45.642;13.756;2023-08-30T08:55:26;20.30;99.90
35647;DHT22;28680;45.642;13.756;2023-08-30T08:57:53;20.40;99.90
35647;DHT22;28680;45.642;13.756;2023-08-30T09:00:19;20.50;99.90
35647;DHT22;28680;45.642;13.756;2023-08-30T09:02:47;20.60;99.90
35647;DHT22;28680;45.642;13.756;2023-08-30T09:05:13;20.50;99.90
35647;DHT22;28680;45.642;13.756;2023-08-30T09:07:40;20.40;99.90
35647;DHT22;28680;45.642;13.756;2023-08-30T09:10:06;20.80;99.90
35647;DHT22;28680;45.642;13.756;2023-08-30T09:12:33;20.50;99.90
35647;DHT22;28680;45.642;13.756;2023-08-30T09:14:59;20.80;99.90
35647;DHT22;28680;45.642;13.756;2023-08-30T09:17:38;20.40;99.90
35647;DHT22;28680;45.642;13.756;2023-08-30T09:20:14;20.10;99.90
35647;DHT22;28680;45.642;13.756;2023-08-30T09:22:40;20.20;99.90
35647;DHT22;28680;45.642;13.756;2023-08-30T09:25:09;20.50;99.90
35647;DHT22;28680;45.642;13.756;2023-08-30T09:27:35;20.70;99.90
35647;DHT22;28680;45.642;13.756;2023-08-30T09:30:04;21.00;99.90
35647;DHT22;28680;45.642;13.756;2023-08-30T09:32:31;21.30;99.90
35647;DHT22;28680;45.642;13.756;2023-08-30T09:34:56;21.70;99.90
35647;DHT22;28680;45.642;13.756;2023-08-30T09:37:23;21.60;99.90
35647;DHT22;28680;45.642;13.756;2023-08-30T09:39:50;21.50;99.90
35647;DHT22;28680;45.642;13.756;2023-08-30T09:42:19;21.50;99.90
35647;DHT22;28680;45.642;13.756;2023-08-30T09:44:44;21.50;99.90
35647;DHT22;28680;45.642;13.756;2023-08-30T09:47:12;21.60;99.90
35647;DHT22;28680;45.642;13.756;2023-08-30T09:49:45;22.00;99.90
35647;DHT22;28680;45.642;13.756;2023-08-30T09:52:15;21.90;99.90
35647;DHT22;28680;45.642;13.756;2023-08-30T09:54:42;22.00;99.90
35647;DHT22;28680;45.642;13.756;2023-08-30T09:57:12;21.80;99.90
35647;DHT22;28680;45.642;13.756;2023-08-30T09:59:39;21.60;99.90
35647;DHT22;28680;45.642;13.756;2023-08-30T10:02:06;22.00;99.90
35647;DHT22;28680;45.642;13.756;2023-08-30T10:04:36;21.80;99.90
35647;DHT22;28680;45.642;13.756;2023-08-30T10:07:04;22.40;99.90
35647;DHT22;28680;45.642;13.756;2023-08-30T10:09:32;21.70;99.90
35647;DHT22;28680;45.642;13.756;2023-08-30T10:11:58;22.00;99.90
35647;DHT22;28680;45.642;13.756;2023-08-30T10:14:27;21.80;99.90
35647;DHT22;28680;45.642;13.756;2023-08-30T10:17:01;21.70;99.90
35647;DHT22;28680;45.642;13.756;2023-08-30T10:19:28;21.70;99.90
35647;DHT22;28680;45.642;13.756;2023-08-30T10:24:27;22.00;99.90
35647;DHT22;28680;45.642;13.756;2023-08-30T10:26:54;21.80;99.90
35647;DHT22;28680;45.642;13.756;2023-08-30T10:29:22;21.90;99.90
35647;DHT22;28680;45.642;13.756;2023-08-30T10:31:49;21.60;99.90
35647;DHT22;28680;45.642;13.756;2023-08-30T10:34:16;21.90;99.90
35647;DHT22;28680;45.642;13.756;2023-08-30T10:36:43;21.80;99.90
35647;DHT22;28680;45.642;13.756;2023-08-30T10:39:14;22.00;99.90
35647;DHT22;28680;45.642;13.756;2023-08-30T10:41:56;22.40;99.90
35647;DHT22;28680;45.642;13.756;2023-08-30T10:44:23;22.10;99.90
35647;DHT22;28680;45.642;13.756;2023-08-30T10:46:53;22.30;99.90
35647;DHT22;28680;45.642;13.756;2023-08-30T10:49:22;21.60;99.90
35647;DHT22;28680;45.642;13.756;2023-08-30T10:51:59;21.20;99.90
35647;DHT22;28680;45.642;13.756;2023-08-30T10:54:36;21.60;99.90
35647;DHT22;28680;45.642;13.756;2023-08-30T10:57:03;22.00;99.90
35647;DHT22;28680;45.642;13.756;2023-08-30T10:59:29;21.50;99.90
35647;DHT22;28680;45.642;13.756;2023-08-30T11:01:56;21.30;99.90
35647;DHT22;28680;45.642;13.756;2023-08-30T11:04:22;21.10;99.90
35647;DHT22;28680;45.642;13.756;2023-08-30T11:06:50;21.30;99.90
35647;DHT22;28680;45.642;13.756;2023-08-30T11:09:18;21.70;99.90
35647;DHT22;28680;45.642;13.756;2023-08-30T11:11:48;21.50;99.90
35647;DHT22;28680;45.642;13.756;2023-08-30T11:14:15;21.80;99.90
35647;DHT22;28680;45.642;13.756;2023-08-30T11:16:41;21.80;99.90
35647;DHT22;28680;45.642;13.756;2023-08-30T11:19:08;21.50;99.90
35647;DHT22;28680;45.642;13.756;2023-08-30T11:21:37;21.60;99.90
35647;DHT22;28680;45.642;13.756;2023-08-30T11:24:04;20.80;99.90
35647;DHT22;28680;45.642;13.756;2023-08-30T11:26:30;20.40;99.90
35647;DHT22;28680;45.642;13.756;2023-08-30T11:28:56;20.60;99.90
35647;DHT22;28680;45.642;13.756;2023-08-30T11:31:23;21.00;99.90
35647;DHT22;28680;45.642;13.756;2023-08-30T11:33:57;21.10;99.90
35647;DHT22;28680;45.642;13.756;2023-08-30T11:36:27;21.40;99.90
35647;DHT22;28680;45.642;13.756;2023-08-30T11:38:54;21.80;99.90
35647;DHT22;28680;45.642;13.756;2023-08-30T11:41:21;21.60;99.90
35647;DHT22;28680;45.642;13.756;2023-08-30T11:43:48;21.40;99.90
35647;DHT22;28680;45.642;13.756;2023-08-30T11:46:14;21.20;99.90
35647;DHT22;28680;45.642;13.756;2023-08-30T11:48:40;21.40;99.90
35647;DHT22;28680;45.642;13.756;2023-08-30T11:51:10;21.00;99.90
35647;DHT22;28680;45.642;13.756;2023-08-30T11:53:37;21.50;99.90
35647;DHT22;28680;45.642;13.756;2023-08-30T11:56:07;21.80;99.90
35647;DHT22;28680;45.642;13.756;2023-08-30T11:58:36;21.60;99.90
35647;DHT22;28680;45.642;13.756;2023-08-30T12:01:03;20.90;99.90
35647;DHT22;28680;45.642;13.756;2023-08-30T12:03:30;21.40;99.90
35647;DHT22;28680;45.642;13.756;2023-08-30T12:05:56;21.80;99.90
35647;DHT22;28680;45.642;13.756;2023-08-30T12:08:28;21.70;99.90
35647;DHT22;28680;45.642;13.756;2023-08-30T12:10:55;21.60;99.90
35647;DHT22;28680;45.642;13.756;2023-08-30T12:13:25;21.30;99.90
35647;DHT22;28680;45.642;13.756;2023-08-30T12:15:52;21.20;99.90
35647;DHT22;28680;45.642;13.756;2023-08-30T12:18:25;21.30;99.90
35647;DHT22;28680;45.642;13.756;2023-08-30T12:21:02;21.00;99.90
35647;DHT22;28680;45.642;13.756;2023-08-30T12:23:32;20.90;99.90
35647;DHT22;28680;45.642;13.756;2023-08-30T12:26:03;21.60;99.90
35647;DHT22;28680;45.642;13.756;2023-08-30T12:28:34;21.00;99.90
35647;DHT22;28680;45.642;13.756;2023-08-30T12:31:00;20.70;99.90
35647;DHT22;28680;45.642;13.756;2023-08-30T12:33:27;20.40;99.90
35647;DHT22;28680;45.642;13.756;2023-08-30T12:35:54;20.40;99.90
35647;DHT22;28680;45.642;13.756;2023-08-30T12:38:21;21.30;99.90
35647;DHT22;28680;45.642;13.756;2023-08-30T12:40:48;21.00;99.90
35647;DHT22;28680;45.642;13.756;2023-08-30T12:43:16;20.60;99.90
35647;DHT22;28680;45.642;13.756;2023-08-30T12:45:43;20.50;99.90
35647;DHT22;28680;45.642;13.756;2023-08-30T12:48:11;20.70;99.90
35647;DHT22;28680;45.642;13.756;2023-08-30T12:50:38;21.20;99.90
35647;DHT22;28680;45.642;13.756;2023-08-30T12:53:05;21.00;99.90
35647;DHT22;28680;45.642;13.756;2023-08-30T12:55:32;20.60;99.90
35647;DHT22;28680;45.642;13.756;2023-08-30T12:57:58;20.90;99.90
35647;DHT22;28680;45.642;13.756;2023-08-30T13:00:24;21.30;99.90
35647;DHT22;28680;45.642;13.756;2023-08-30T13:02:50;21.20;99.90
35647;DHT22;28680;45.642;13.756;2023-08-30T13:05:16;21.10;99.90
35647;DHT22;28680;45.642;13.756;2023-08-30T13:07:42;21.30;99.90
35647;DHT22;28680;45.642;13.756;2023-08-30T13:10:08;20.90;99.90
35647;DHT22;28680;45.642;13.756;2023-08-30T13:12:35;21.10;99.90
35647;DHT22;28680;45.642;13.756;2023-08-30T13:15:01;21.10;99.90
35647;DHT22;28680;45.642;13.756;2023-08-30T13:17:27;21.30;99.90
35647;DHT22;28680;45.642;13.756;2023-08-30T13:19:53;21.20;99.90
35647;DHT22;28680;45.642;13.756;2023-08-30T13:22:19;21.20;99.90
35647;DHT22;28680;45.642;13.756;2023-08-30T13:24:45;21.30;99.90
35647;DHT22;28680;45.642;13.756;2023-08-30T13:27:12;21.40;99.90
35647;DHT22;28680;45.642;13.756;2023-08-30T13:29:38;21.70;99.90
35647;DHT22;28680;45.642;13.756;2023-08-30T13:32:04;22.10;99.90
35647;DHT22;28680;45.642;13.756;2023-08-30T13:34:30;22.40;99.90
35647;DHT22;28680;45.642;13.756;2023-08-30T13:36:56;22.30;99.90
35647;DHT22;28680;45.642;13.756;2023-08-30T13:39:22;22.00;99.90
35647;DHT22;28680;45.642;13.756;2023-08-30T13:41:48;21.40;99.90
35647;DHT22;28680;45.642;13.756;2023-08-30T13:44:14;21.10;99.90
35647;DHT22;28680;45.642;13.756;2023-08-30T13:46:40;21.40;99.90
35647;DHT22;28680;45.642;13.756;2023-08-30T13:49:07;21.10;99.90
35647;DHT22;28680;45.642;13.756;2023-08-30T13:51:32;20.70;99.90
35647;DHT22;28680;45.642;13.756;2023-08-30T13:53:58;20.50;99.90
35647;DHT22;28680;45.642;13.756;2023-08-30T13:56:24;20.30;99.90
35647;DHT22;28680;45.642;13.756;2023-08-30T13:58:50;20.30;99.90
35647;DHT22;28680;45.642;13.756;2023-08-30T14:01:16;20.70;99.90
35647;DHT22;28680;45.642;13.756;2023-08-30T14:03:42;20.90;99.90
35647;DHT22;28680;45.642;13.756;2023-08-30T14:06:08;21.10;99.90
35647;DHT22;28680;45.642;13.756;2023-08-30T14:08:35;21.10;99.90
35647;DHT22;28680;45.642;13.756;2023-08-30T14:11:01;21.00;99.90
35647;DHT22;28680;45.642;13.756;2023-08-30T14:13:27;20.90;99.90
35647;DHT22;28680;45.642;13.756;2023-08-30T14:16:00;20.80;99.90
35647;DHT22;28680;45.642;13.756;2023-08-30T14:18:26;20.80;99.90
35647;DHT22;28680;45.642;13.756;2023-08-30T14:20:55;20.60;99.90
35647;DHT22;28680;45.642;13.756;2023-08-30T14:23:26;20.50;99.90
35647;DHT22;28680;45.642;13.756;2023-08-30T14:26:04;20.50;99.90
35647;DHT22;28680;45.642;13.756;2023-08-30T14:28:38;20.80;99.90
35647;DHT22;28680;45.642;13.756;2023-08-30T14:31:09;20.80;99.90
35647;DHT22;28680;45.642;13.756;2023-08-30T14:33:35;20.70;99.90
35647;DHT22;28680;45.642;13.756;2023-08-30T14:36:01;20.50;99.90
35647;DHT22;28680;45.642;13.756;2023-08-30T14:38:28;20.70;99.90
35647;DHT22;28680;45.642;13.756;2023-08-30T14:40:58;21.00;99.90
35647;DHT22;28680;45.642;13.756;2023-08-30T14:43:24;20.70;99.90
35647;DHT22;28680;45.642;13.756;2023-08-30T14:45:50;20.70;99.90
35647;DHT22;28680;45.642;13.756;2023-08-30T14:48:16;20.70;99.90
35647;DHT22;28680;45.642;13.756;2023-08-30T14:50:42;21.00;99.90
35647;DHT22;28680;45.642;13.756;2023-08-30T14:53:08;20.80;99.90
35647;DHT22;28680;45.642;13.756;2023-08-30T14:55:34;20.80;99.90
35647;DHT22;28680;45.642;13.756;2023-08-30T14:58:00;20.90;99.90
35647;DHT22;28680;45.642;13.756;2023-08-30T15:00:26;20.80;99.90
35647;DHT22;28680;45.642;13.756;2023-08-30T15:02:52;20.90;99.90
35647;DHT22;28680;45.642;13.756;2023-08-30T15:05:17;20.70;99.90
35647;DHT22;28680;45.642;13.756;2023-08-30T15:07:43;20.50;99.90
35647;DHT22;28680;45.642;13.756;2023-08-30T15:10:09;20.50;99.90
35647;DHT22;28680;45.642;13.756;2023-08-30T15:12:36;20.50;99.90
35647;DHT22;28680;45.642;13.756;2023-08-30T15:15:03;20.60;99.90
35647;DHT22;28680;45.642;13.756;2023-08-30T15:17:29;20.60;99.90
35647;DHT22;28680;45.642;13.756;2023-08-30T15:19:54;20.30;99.90
35647;DHT22;28680;45.642;13.756;2023-08-30T15:22:20;20.30;99.90